Rare Metals, Arizona
Current Conditions -  °F | °C
As of 9:54 AM on Tuesday 21 Oct 2014 (Local Time) from KGCN Reporting Station
Clear Clear  
Wind Chill: 53°   Ceiling: Unl
Heat Index: 53°   Visibility: 10mi
Dew Point: 40°   Wind: 5mph
Humidity: 61%   Direction: 180°S
Pressure: 30.18"   Gusts: NA
Location:  35.9808°N, 111.359°W
Report Text: KGCN 211554Z 18004KT 10SM CLR 12/04 A3018 RMK AO2 SLP171 T01170044
Loading
Personal Weather Stations






























Interactive Weather Map
Tropical Storm Tracking
New forecast layout! Learn more

10-Day Weather Forecast

Advertisements
Track Severe Weather on mobile